sensor_id;sensor_type;location;lat;lon;timestamp;temperature;humidity
67163;DHT22;54092;53.088;8.850;2023-04-07T00:01:43;6.80;99.90
67163;DHT22;54092;53.088;8.850;2023-04-07T00:04:08;6.70;99.90
67163;DHT22;54092;53.088;8.850;2023-04-07T00:06:35;6.80;99.90
67163;DHT22;54092;53.088;8.850;2023-04-07T00:09:01;6.70;99.90
67163;DHT22;54092;53.088;8.850;2023-04-07T00:11:26;6.70;99.90
67163;DHT22;54092;53.088;8.850;2023-04-07T00:13:52;6.70;99.90
67163;DHT22;54092;53.088;8.850;2023-04-07T00:16:17;6.70;99.90
67163;DHT22;54092;53.088;8.850;2023-04-07T00:18:43;6.70;99.90
67163;DHT22;54092;53.088;8.850;2023-04-07T00:21:08;6.70;99.90
67163;DHT22;54092;53.088;8.850;2023-04-07T00:23:34;6.70;99.90
67163;DHT22;54092;53.088;8.850;2023-04-07T00:26:00;6.70;99.90
67163;DHT22;54092;53.088;8.850;2023-04-07T00:28:25;6.60;99.90
67163;DHT22;54092;53.088;8.850;2023-04-07T00:30:51;6.60;99.90
67163;DHT22;54092;53.088;8.850;2023-04-07T00:33:16;6.60;99.90
67163;DHT22;54092;53.088;8.850;2023-04-07T00:35:42;6.60;99.90
67163;DHT22;54092;53.088;8.850;2023-04-07T00:38:07;6.60;99.90
67163;DHT22;54092;53.088;8.850;2023-04-07T00:40:33;6.60;99.90
67163;DHT22;54092;53.088;8.850;2023-04-07T00:42:58;6.50;99.90
67163;DHT22;54092;53.088;8.850;2023-04-07T00:45:24;6.60;99.90
67163;DHT22;54092;53.088;8.850;2023-04-07T00:47:50;6.50;99.90
67163;DHT22;54092;53.088;8.850;2023-04-07T00:50:15;6.50;99.90
67163;DHT22;54092;53.088;8.850;2023-04-07T00:52:42;6.40;99.90
67163;DHT22;54092;53.088;8.850;2023-04-07T00:55:09;6.40;99.90
67163;DHT22;54092;53.088;8.850;2023-04-07T00:57:34;6.40;99.90
67163;DHT22;54092;53.088;8.850;2023-04-07T01:00:00;6.30;99.90
67163;DHT22;54092;53.088;8.850;2023-04-07T01:02:58;6.30;99.90
67163;DHT22;54092;53.088;8.850;2023-04-07T01:05:41;6.30;99.90
67163;DHT22;54092;53.088;8.850;2023-04-07T01:10:49;6.20;99.90
67163;DHT22;54092;53.088;8.850;2023-04-07T01:13:32;6.20;99.90
67163;DHT22;54092;53.088;8.850;2023-04-07T01:16:01;6.30;99.90
67163;DHT22;54092;53.088;8.850;2023-04-07T01:18:31;6.30;99.90
67163;DHT22;54092;53.088;8.850;2023-04-07T01:21:05;6.20;99.90
67163;DHT22;54092;53.088;8.850;2023-04-07T01:26:34;6.20;99.90
67163;DHT22;54092;53.088;8.850;2023-04-07T01:31:46;6.20;99.90
67163;DHT22;54092;53.088;8.850;2023-04-07T01:34:13;6.10;99.90
67163;DHT22;54092;53.088;8.850;2023-04-07T01:36:40;6.10;99.90
67163;DHT22;54092;53.088;8.850;2023-04-07T01:39:06;6.00;99.90
67163;DHT22;54092;53.088;8.850;2023-04-07T01:41:33;6.00;99.90
67163;DHT22;54092;53.088;8.850;2023-04-07T01:44:00;6.00;99.90
67163;DHT22;54092;53.088;8.850;2023-04-07T01:46:27;6.00;99.90
67163;DHT22;54092;53.088;8.850;2023-04-07T01:48:54;6.00;99.90
67163;DHT22;54092;53.088;8.850;2023-04-07T01:51:21;6.00;99.90
67163;DHT22;54092;53.088;8.850;2023-04-07T01:53:48;6.10;99.90
67163;DHT22;54092;53.088;8.850;2023-04-07T01:56:14;6.00;99.90
67163;DHT22;54092;53.088;8.850;2023-04-07T01:58:41;6.00;99.90
67163;DHT22;54092;53.088;8.850;2023-04-07T02:01:06;5.90;99.90
67163;DHT22;54092;53.088;8.850;2023-04-07T02:03:43;5.90;99.90
67163;DHT22;54092;53.088;8.850;2023-04-07T02:06:12;5.90;99.90
67163;DHT22;54092;53.088;8.850;2023-04-07T02:08:49;5.90;99.90
67163;DHT22;54092;53.088;8.850;2023-04-07T02:11:17;5.80;99.90
67163;DHT22;54092;53.088;8.850;2023-04-07T02:13:45;5.80;99.90
67163;DHT22;54092;53.088;8.850;2023-04-07T02:16:12;5.80;99.90
67163;DHT22;54092;53.088;8.850;2023-04-07T02:18:38;5.80;99.90
67163;DHT22;54092;53.088;8.850;2023-04-07T02:21:06;5.70;99.90
67163;DHT22;54092;53.088;8.850;2023-04-07T02:23:34;5.70;99.90
67163;DHT22;54092;53.088;8.850;2023-04-07T02:26:00;5.70;99.90
67163;DHT22;54092;53.088;8.850;2023-04-07T02:28:25;5.70;99.90
67163;DHT22;54092;53.088;8.850;2023-04-07T02:30:51;5.60;99.90
67163;DHT22;54092;53.088;8.850;2023-04-07T02:33:16;5.60;99.90
67163;DHT22;54092;53.088;8.850;2023-04-07T02:35:42;5.60;99.90
67163;DHT22;54092;53.088;8.850;2023-04-07T02:38:07;5.50;99.90
67163;DHT22;54092;53.088;8.850;2023-04-07T02:40:33;5.50;99.90
67163;DHT22;54092;53.088;8.850;2023-04-07T02:43:00;5.50;99.90
67163;DHT22;54092;53.088;8.850;2023-04-07T02:45:26;5.50;99.90
67163;DHT22;54092;53.088;8.850;2023-04-07T02:47:51;5.50;99.90
67163;DHT22;54092;53.088;8.850;2023-04-07T02:50:17;5.50;99.90
67163;DHT22;54092;53.088;8.850;2023-04-07T02:52:43;5.50;99.90
67163;DHT22;54092;53.088;8.850;2023-04-07T02:55:08;5.40;99.90
67163;DHT22;54092;53.088;8.850;2023-04-07T02:57:34;5.40;99.90
67163;DHT22;54092;53.088;8.850;2023-04-07T03:00:00;5.30;99.90
67163;DHT22;54092;53.088;8.850;2023-04-07T03:02:25;5.30;99.90
67163;DHT22;54092;53.088;8.850;2023-04-07T03:04:51;5.20;99.90
67163;DHT22;54092;53.088;8.850;2023-04-07T03:07:17;5.20;99.90
67163;DHT22;54092;53.088;8.850;2023-04-07T03:09:42;5.20;99.90
67163;DHT22;54092;53.088;8.850;2023-04-07T03:12:09;5.20;99.90
67163;DHT22;54092;53.088;8.850;2023-04-07T03:14:35;5.10;99.90
67163;DHT22;54092;53.088;8.850;2023-04-07T03:17:02;5.10;99.90
67163;DHT22;54092;53.088;8.850;2023-04-07T03:19:27;5.10;99.90
67163;DHT22;54092;53.088;8.850;2023-04-07T03:21:53;5.00;99.90
67163;DHT22;54092;53.088;8.850;2023-04-07T03:24:18;5.00;99.90
67163;DHT22;54092;53.088;8.850;2023-04-07T03:26:44;5.00;99.90
67163;DHT22;54092;53.088;8.850;2023-04-07T03:29:10;5.00;99.90
67163;DHT22;54092;53.088;8.850;2023-04-07T03:31:35;4.90;99.90
67163;DHT22;54092;53.088;8.850;2023-04-07T03:34:02;4.90;99.90
67163;DHT22;54092;53.088;8.850;2023-04-07T03:36:28;4.90;99.90
67163;DHT22;54092;53.088;8.850;2023-04-07T03:38:54;4.90;99.90
67163;DHT22;54092;53.088;8.850;2023-04-07T03:41:19;4.90;99.90
67163;DHT22;54092;53.088;8.850;2023-04-07T03:43:45;4.80;99.90
67163;DHT22;54092;53.088;8.850;2023-04-07T03:46:11;4.70;99.90
67163;DHT22;54092;53.088;8.850;2023-04-07T03:48:36;4.70;99.90
67163;DHT22;54092;53.088;8.850;2023-04-07T03:51:02;4.70;99.90
67163;DHT22;54092;53.088;8.850;2023-04-07T03:53:27;4.70;99.90
67163;DHT22;54092;53.088;8.850;2023-04-07T03:55:53;4.70;99.90
67163;DHT22;54092;53.088;8.850;2023-04-07T03:58:18;4.60;99.90
67163;DHT22;54092;53.088;8.850;2023-04-07T04:00:44;4.60;99.90
67163;DHT22;54092;53.088;8.850;2023-04-07T04:03:09;4.50;99.90
67163;DHT22;54092;53.088;8.850;2023-04-07T04:05:35;4.50;99.90
67163;DHT22;54092;53.088;8.850;2023-04-07T04:08:01;4.40;99.90
67163;DHT22;54092;53.088;8.850;2023-04-07T04:10:26;4.40;99.90
67163;DHT22;54092;53.088;8.850;2023-04-07T04:12:52;4.40;99.90
67163;DHT22;54092;53.088;8.850;2023-04-07T04:15:17;4.30;99.90
67163;DHT22;54092;53.088;8.850;2023-04-07T04:17:43;4.30;99.90
67163;DHT22;54092;53.088;8.850;2023-04-07T04:20:09;4.20;99.90
67163;DHT22;54092;53.088;8.850;2023-04-07T04:22:34;4.20;99.90
67163;DHT22;54092;53.088;8.850;2023-04-07T04:25:00;4.20;99.90
67163;DHT22;54092;53.088;8.850;2023-04-07T04:27:26;4.20;99.90
67163;DHT22;54092;53.088;8.850;2023-04-07T04:29:52;4.20;99.90
67163;DHT22;54092;53.088;8.850;2023-04-07T04:32:18;4.20;99.90
67163;DHT22;54092;53.088;8.850;2023-04-07T04:34:43;4.10;99.90
67163;DHT22;54092;53.088;8.850;2023-04-07T04:37:09;4.10;99.90
67163;DHT22;54092;53.088;8.850;2023-04-07T04:39:35;4.10;99.90
67163;DHT22;54092;53.088;8.850;2023-04-07T04:42:01;4.10;99.90
67163;DHT22;54092;53.088;8.850;2023-04-07T04:44:28;4.00;99.90
67163;DHT22;54092;53.088;8.850;2023-04-07T04:46:54;4.00;99.90
67163;DHT22;54092;53.088;8.850;2023-04-07T04:49:20;4.00;99.90
67163;DHT22;54092;53.088;8.850;2023-04-07T04:51:46;3.90;99.90
67163;DHT22;54092;53.088;8.850;2023-04-07T04:54:11;3.90;99.90
67163;DHT22;54092;53.088;8.850;2023-04-07T04:56:37;3.90;99.90
67163;DHT22;54092;53.088;8.850;2023-04-07T04:59:03;3.90;99.90
67163;DHT22;54092;53.088;8.850;2023-04-07T05:01:29;3.80;99.90
67163;DHT22;54092;53.088;8.850;2023-04-07T05:03:54;3.80;99.90
67163;DHT22;54092;53.088;8.850;2023-04-07T05:06:20;3.80;99.90
67163;DHT22;54092;53.088;8.850;2023-04-07T05:08:46;3.80;99.90
67163;DHT22;54092;53.088;8.850;2023-04-07T05:11:12;3.70;99.90
67163;DHT22;54092;53.088;8.850;2023-04-07T05:13:37;3.70;99.90
67163;DHT22;54092;53.088;8.850;2023-04-07T05:16:03;3.70;99.90
67163;DHT22;54092;53.088;8.850;2023-04-07T05:18:29;3.60;99.90
67163;DHT22;54092;53.088;8.850;2023-04-07T05:20:54;3.70;99.90
67163;DHT22;54092;53.088;8.850;2023-04-07T05:23:20;3.70;99.90
67163;DHT22;54092;53.088;8.850;2023-04-07T05:25:46;3.70;99.90
67163;DHT22;54092;53.088;8.850;2023-04-07T05:28:11;3.70;99.90
67163;DHT22;54092;53.088;8.850;2023-04-07T05:30:37;3.70;99.90
67163;DHT22;54092;53.088;8.850;2023-04-07T05:33:02;3.80;99.90
67163;DHT22;54092;53.088;8.850;2023-04-07T05:35:28;3.80;99.90
67163;DHT22;54092;53.088;8.850;2023-04-07T05:37:53;3.80;99.90
67163;DHT22;54092;53.088;8.850;2023-04-07T05:40:19;3.90;99.90
67163;DHT22;54092;53.088;8.850;2023-04-07T05:42:44;4.00;99.90
67163;DHT22;54092;53.088;8.850;2023-04-07T05:45:10;4.00;99.90
67163;DHT22;54092;53.088;8.850;2023-04-07T05:47:36;4.00;99.90
67163;DHT22;54092;53.088;8.850;2023-04-07T05:50:01;4.10;99.90
67163;DHT22;54092;53.088;8.850;2023-04-07T05:52:27;4.20;99.90
67163;DHT22;54092;53.088;8.850;2023-04-07T05:54:52;4.30;99.90
67163;DHT22;54092;53.088;8.850;2023-04-07T05:57:18;4.40;99.90
67163;DHT22;54092;53.088;8.850;2023-04-07T05:59:43;4.50;99.90
67163;DHT22;54092;53.088;8.850;2023-04-07T06:02:09;4.60;99.90
67163;DHT22;54092;53.088;8.850;2023-04-07T06:04:35;4.60;99.90
67163;DHT22;54092;53.088;8.850;2023-04-07T06:07:01;4.70;99.90
67163;DHT22;54092;53.088;8.850;2023-04-07T06:09:27;4.80;99.90
67163;DHT22;54092;53.088;8.850;2023-04-07T06:11:52;4.80;99.90
67163;DHT22;54092;53.088;8.850;2023-04-07T06:14:18;4.90;99.90
67163;DHT22;54092;53.088;8.850;2023-04-07T06:16:43;5.00;99.90
67163;DHT22;54092;53.088;8.850;2023-04-07T06:19:10;5.20;99.90
67163;DHT22;54092;53.088;8.850;2023-04-07T06:21:35;5.40;99.90
67163;DHT22;54092;53.088;8.850;2023-04-07T06:24:01;5.60;99.90
67163;DHT22;54092;53.088;8.850;2023-04-07T06:26:26;5.80;99.90
67163;DHT22;54092;53.088;8.850;2023-04-07T06:28:52;5.80;99.90
67163;DHT22;54092;53.088;8.850;2023-04-07T06:31:18;5.90;99.90
67163;DHT22;54092;53.088;8.850;2023-04-07T06:33:44;6.00;99.90
67163;DHT22;54092;53.088;8.850;2023-04-07T06:36:10;6.10;99.90
67163;DHT22;54092;53.088;8.850;2023-04-07T06:38:36;6.20;99.90
67163;DHT22;54092;53.088;8.850;2023-04-07T06:41:01;6.30;99.90
67163;DHT22;54092;53.088;8.850;2023-04-07T06:43:27;6.40;99.90
67163;DHT22;54092;53.088;8.850;2023-04-07T06:45:53;6.50;99.90
67163;DHT22;54092;53.088;8.850;2023-04-07T06:48:18;6.60;99.90
67163;DHT22;54092;53.088;8.850;2023-04-07T06:50:49;6.60;99.90
67163;DHT22;54092;53.088;8.850;2023-04-07T06:53:14;6.80;99.90
67163;DHT22;54092;53.088;8.850;2023-04-07T06:55:40;6.80;99.90
67163;DHT22;54092;53.088;8.850;2023-04-07T06:58:06;7.00;99.90
67163;DHT22;54092;53.088;8.850;2023-04-07T07:00:31;7.10;99.90
67163;DHT22;54092;53.088;8.850;2023-04-07T07:02:57;7.20;99.90
67163;DHT22;54092;53.088;8.850;2023-04-07T07:05:23;7.30;99.90
67163;DHT22;54092;53.088;8.850;2023-04-07T07:07:49;7.40;99.90
67163;DHT22;54092;53.088;8.850;2023-04-07T07:10:15;7.50;99.90
67163;DHT22;54092;53.088;8.850;2023-04-07T07:12:40;7.70;99.90
67163;DHT22;54092;53.088;8.850;2023-04-07T07:15:06;7.70;99.90
67163;DHT22;54092;53.088;8.850;2023-04-07T07:17:32;7.70;99.90
67163;DHT22;54092;53.088;8.850;2023-04-07T07:19:58;7.80;99.90
67163;DHT22;54092;53.088;8.850;2023-04-07T07:22:23;7.90;99.90
67163;DHT22;54092;53.088;8.850;2023-04-07T07:24:49;8.00;99.90
67163;DHT22;54092;53.088;8.850;2023-04-07T07:27:15;8.00;99.90
67163;DHT22;54092;53.088;8.850;2023-04-07T07:29:41;8.10;99.90
67163;DHT22;54092;53.088;8.850;2023-04-07T07:32:06;8.20;99.90
67163;DHT22;54092;53.088;8.850;2023-04-07T07:34:32;8.30;99.90
67163;DHT22;54092;53.088;8.850;2023-04-07T07:36:57;8.40;99.90
67163;DHT22;54092;53.088;8.850;2023-04-07T07:39:24;8.50;99.90
67163;DHT22;54092;53.088;8.850;2023-04-07T07:41:50;8.60;99.90
67163;DHT22;54092;53.088;8.850;2023-04-07T07:44:16;8.70;99.90
67163;DHT22;54092;53.088;8.850;2023-04-07T07:46:41;8.80;99.90
67163;DHT22;54092;53.088;8.850;2023-04-07T07:49:07;8.90;99.90
67163;DHT22;54092;53.088;8.850;2023-04-07T07:51:33;9.00;99.90
67163;DHT22;54092;53.088;8.850;2023-04-07T07:53:58;9.10;99.90
67163;DHT22;54092;53.088;8.850;2023-04-07T07:56:24;9.20;99.90
67163;DHT22;54092;53.088;8.850;2023-04-07T07:58:49;9.40;99.90
67163;DHT22;54092;53.088;8.850;2023-04-07T08:01:15;9.50;99.90
67163;DHT22;54092;53.088;8.850;2023-04-07T08:03:41;9.60;99.90
67163;DHT22;54092;53.088;8.850;2023-04-07T08:06:06;9.80;99.90
67163;DHT22;54092;53.088;8.850;2023-04-07T08:08:33;10.00;99.90
67163;DHT22;54092;53.088;8.850;2023-04-07T08:10:59;10.20;99.90
67163;DHT22;54092;53.088;8.850;2023-04-07T08:13:25;10.30;99.90
67163;DHT22;54092;53.088;8.850;2023-04-07T08:15:51;10.40;99.90
67163;DHT22;54092;53.088;8.850;2023-04-07T08:18:16;10.40;99.90
67163;DHT22;54092;53.088;8.850;2023-04-07T08:20:42;10.50;99.90
67163;DHT22;54092;53.088;8.850;2023-04-07T08:23:07;10.60;99.90
67163;DHT22;54092;53.088;8.850;2023-04-07T08:25:33;10.70;99.90
67163;DHT22;54092;53.088;8.850;2023-04-07T08:27:59;10.70;99.90
67163;DHT22;54092;53.088;8.850;2023-04-07T08:30:25;10.80;99.90
67163;DHT22;54092;53.088;8.850;2023-04-07T08:32:50;11.00;99.90
67163;DHT22;54092;53.088;8.850;2023-04-07T08:35:16;11.00;99.90
67163;DHT22;54092;53.088;8.850;2023-04-07T08:37:41;11.10;99.90
67163;DHT22;54092;53.088;8.850;2023-04-07T08:40:08;11.10;99.90
67163;DHT22;54092;53.088;8.850;2023-04-07T08:42:39;11.20;99.90
67163;DHT22;54092;53.088;8.850;2023-04-07T08:45:06;11.30;99.90
67163;DHT22;54092;53.088;8.850;2023-04-07T08:47:33;11.70;99.90
67163;DHT22;54092;53.088;8.850;2023-04-07T08:50:07;12.40;99.90
67163;DHT22;54092;53.088;8.850;2023-04-07T08:52:40;13.10;99.90
67163;DHT22;54092;53.088;8.850;2023-04-07T08:55:08;13.80;99.90
67163;DHT22;54092;53.088;8.850;2023-04-07T08:57:35;14.10;99.90
67163;DHT22;54092;53.088;8.850;2023-04-07T09:00:02;14.20;99.90
67163;DHT22;54092;53.088;8.850;2023-04-07T09:02:38;14.20;99.90
67163;DHT22;54092;53.088;8.850;2023-04-07T09:05:06;14.30;99.90
67163;DHT22;54092;53.088;8.850;2023-04-07T09:07:33;14.50;99.90
67163;DHT22;54092;53.088;8.850;2023-04-07T09:09:59;14.80;99.90
67163;DHT22;54092;53.088;8.850;2023-04-07T09:12:27;15.10;99.90
67163;DHT22;54092;53.088;8.850;2023-04-07T09:14:52;15.30;99.90
67163;DHT22;54092;53.088;8.850;2023-04-07T09:17:18;15.70;99.90
67163;DHT22;54092;53.088;8.850;2023-04-07T09:19:44;16.20;99.90
67163;DHT22;54092;53.088;8.850;2023-04-07T09:22:10;16.50;99.90
67163;DHT22;54092;53.088;8.850;2023-04-07T09:24:39;16.60;99.90
67163;DHT22;54092;53.088;8.850;2023-04-07T09:27:12;16.30;99.90
67163;DHT22;54092;53.088;8.850;2023-04-07T09:29:40;16.30;99.90
67163;DHT22;54092;53.088;8.850;2023-04-07T09:32:06;17.00;99.90
67163;DHT22;54092;53.088;8.850;2023-04-07T09:34:34;17.50;99.90
67163;DHT22;54092;53.088;8.850;2023-04-07T09:37:00;17.50;99.90
67163;DHT22;54092;53.088;8.850;2023-04-07T09:39:26;17.30;99.90
67163;DHT22;54092;53.088;8.850;2023-04-07T09:41:52;17.70;99.90
67163;DHT22;54092;53.088;8.850;2023-04-07T09:44:21;17.70;99.90
67163;DHT22;54092;53.088;8.850;2023-04-07T09:46:57;18.00;99.90
67163;DHT22;54092;53.088;8.850;2023-04-07T09:49:26;17.90;99.90
67163;DHT22;54092;53.088;8.850;2023-04-07T09:51:59;17.90;99.90
67163;DHT22;54092;53.088;8.850;2023-04-07T09:54:32;18.10;99.90
67163;DHT22;54092;53.088;8.850;2023-04-07T09:57:06;18.40;99.90
67163;DHT22;54092;53.088;8.850;2023-04-07T09:59:33;18.00;99.90
67163;DHT22;54092;53.088;8.850;2023-04-07T10:02:00;17.50;99.90
67163;DHT22;54092;53.088;8.850;2023-04-07T10:04:26;17.70;99.90
67163;DHT22;54092;53.088;8.850;2023-04-07T10:06:53;18.20;99.90
67163;DHT22;54092;53.088;8.850;2023-04-07T10:09:23;18.70;99.90
67163;DHT22;54092;53.088;8.850;2023-04-07T10:11:50;18.80;99.90
67163;DHT22;54092;53.088;8.850;2023-04-07T10:14:18;18.70;99.90
67163;DHT22;54092;53.088;8.850;2023-04-07T10:16:45;18.90;99.90
67163;DHT22;54092;53.088;8.850;2023-04-07T10:19:12;19.20;99.90
67163;DHT22;54092;53.088;8.850;2023-04-07T10:21:42;19.40;99.90
67163;DHT22;54092;53.088;8.850;2023-04-07T10:24:25;19.40;99.90
67163;DHT22;54092;53.088;8.850;2023-04-07T10:26:58;19.60;99.90
67163;DHT22;54092;53.088;8.850;2023-04-07T10:29:28;19.80;99.90
67163;DHT22;54092;53.088;8.850;2023-04-07T10:31:55;19.90;99.90
67163;DHT22;54092;53.088;8.850;2023-04-07T10:37:15;19.30;99.90
67163;DHT22;54092;53.088;8.850;2023-04-07T10:39:44;19.50;99.90
67163;DHT22;54092;53.088;8.850;2023-04-07T10:45:04;20.00;99.90
67163;DHT22;54092;53.088;8.850;2023-04-07T10:47:30;19.80;99.90
67163;DHT22;54092;53.088;8.850;2023-04-07T10:52:37;19.70;99.90
67163;DHT22;54092;53.088;8.850;2023-04-07T10:55:32;19.80;99.90
67163;DHT22;54092;53.088;8.850;2023-04-07T10:58:22;19.70;99.90
67163;DHT22;54092;53.088;8.850;2023-04-07T11:01:15;20.50;99.90
67163;DHT22;54092;53.088;8.850;2023-04-07T11:03:51;20.30;99.90
67163;DHT22;54092;53.088;8.850;2023-04-07T11:06:16;20.40;99.90
67163;DHT22;54092;53.088;8.850;2023-04-07T11:08:46;20.50;99.90
67163;DHT22;54092;53.088;8.850;2023-04-07T11:11:14;20.80;99.90
67163;DHT22;54092;53.088;8.850;2023-04-07T11:13:41;20.40;99.90
67163;DHT22;54092;53.088;8.850;2023-04-07T11:16:07;20.70;99.90
67163;DHT22;54092;53.088;8.850;2023-04-07T11:18:34;20.30;99.90
67163;DHT22;54092;53.088;8.850;2023-04-07T11:20:59;20.50;99.90
67163;DHT22;54092;53.088;8.850;2023-04-07T11:23:26;20.60;99.90
67163;DHT22;54092;53.088;8.850;2023-04-07T11:25:58;21.30;99.90
67163;DHT22;54092;53.088;8.850;2023-04-07T11:28:25;21.80;99.90
67163;DHT22;54092;53.088;8.850;2023-04-07T11:30:52;21.50;99.90
67163;DHT22;54092;53.088;8.850;2023-04-07T11:33:22;20.90;99.90
67163;DHT22;54092;53.088;8.850;2023-04-07T11:35:57;20.70;99.90
67163;DHT22;54092;53.088;8.850;2023-04-07T11:38:25;20.80;99.90
67163;DHT22;54092;53.088;8.850;2023-04-07T11:40:52;20.90;99.90
67163;DHT22;54092;53.088;8.850;2023-04-07T11:43:20;20.50;99.90
67163;DHT22;54092;53.088;8.850;2023-04-07T11:45:46;19.90;99.90
67163;DHT22;54092;53.088;8.850;2023-04-07T11:48:31;20.10;99.90
67163;DHT22;54092;53.088;8.850;2023-04-07T11:50:58;20.40;99.90
67163;DHT22;54092;53.088;8.850;2023-04-07T11:53:34;20.60;99.90
67163;DHT22;54092;53.088;8.850;2023-04-07T11:56:09;21.00;99.90
67163;DHT22;54092;53.088;8.850;2023-04-07T11:58:36;20.80;99.90
67163;DHT22;54092;53.088;8.850;2023-04-07T12:01:04;20.40;99.90
67163;DHT22;54092;53.088;8.850;2023-04-07T12:03:34;20.70;99.90
67163;DHT22;54092;53.088;8.850;2023-04-07T12:06:03;20.50;99.90
67163;DHT22;54092;53.088;8.850;2023-04-07T12:08:41;20.20;99.90
67163;DHT22;54092;53.088;8.850;2023-04-07T12:11:08;20.10;99.90
67163;DHT22;54092;53.088;8.850;2023-04-07T12:13:35;19.90;99.90
67163;DHT22;54092;53.088;8.850;2023-04-07T12:16:01;19.80;99.90
67163;DHT22;54092;53.088;8.850;2023-04-07T12:18:27;19.80;99.90
67163;DHT22;54092;53.088;8.850;2023-04-07T12:20:53;20.00;99.90
67163;DHT22;54092;53.088;8.850;2023-04-07T12:23:19;20.50;99.90
67163;DHT22;54092;53.088;8.850;2023-04-07T12:25:44;20.10;99.90
67163;DHT22;54092;53.088;8.850;2023-04-07T12:28:10;20.00;99.90
67163;DHT22;54092;53.088;8.850;2023-04-07T12:30:35;19.80;99.90
67163;DHT22;54092;53.088;8.850;2023-04-07T12:33:01;19.90;99.90
67163;DHT22;54092;53.088;8.850;2023-04-07T12:35:28;19.60;99.90
67163;DHT22;54092;53.088;8.850;2023-04-07T12:37:54;19.20;99.90
67163;DHT22;54092;53.088;8.850;2023-04-07T12:40:21;19.10;99.90
67163;DHT22;54092;53.088;8.850;2023-04-07T12:42:47;19.00;99.90
67163;DHT22;54092;53.088;8.850;2023-04-07T12:45:12;18.90;99.90
67163;DHT22;54092;53.088;8.850;2023-04-07T12:47:38;19.20;99.90
67163;DHT22;54092;53.088;8.850;2023-04-07T12:50:04;19.20;99.90
67163;DHT22;54092;53.088;8.850;2023-04-07T12:52:29;19.10;99.90
67163;DHT22;54092;53.088;8.850;2023-04-07T12:54:55;18.90;99.90
67163;DHT22;54092;53.088;8.850;2023-04-07T12:57:21;19.20;99.90
67163;DHT22;54092;53.088;8.850;2023-04-07T12:59:47;18.90;99.90
67163;DHT22;54092;53.088;8.850;2023-04-07T13:02:13;19.40;99.90
67163;DHT22;54092;53.088;8.850;2023-04-07T13:04:39;19.70;99.90
67163;DHT22;54092;53.088;8.850;2023-04-07T13:07:07;19.80;99.90
67163;DHT22;54092;53.088;8.850;2023-04-07T13:09:34;19.70;99.90
67163;DHT22;54092;53.088;8.850;2023-04-07T13:11:59;19.40;99.90
67163;DHT22;54092;53.088;8.850;2023-04-07T13:14:25;18.90;99.90
67163;DHT22;54092;53.088;8.850;2023-04-07T13:16:50;18.90;99.90
67163;DHT22;54092;53.088;8.850;2023-04-07T13:19:16;18.90;99.90
67163;DHT22;54092;53.088;8.850;2023-04-07T13:21:41;19.10;99.90
67163;DHT22;54092;53.088;8.850;2023-04-07T13:24:07;19.30;99.90
67163;DHT22;54092;53.088;8.850;2023-04-07T13:26:33;19.70;99.90
67163;DHT22;54092;53.088;8.850;2023-04-07T13:28:58;19.40;99.90
67163;DHT22;54092;53.088;8.850;2023-04-07T13:31:24;19.90;99.90
67163;DHT22;54092;53.088;8.850;2023-04-07T13:33:49;20.20;99.90
67163;DHT22;54092;53.088;8.850;2023-04-07T13:36:15;20.30;99.90
67163;DHT22;54092;53.088;8.850;2023-04-07T13:38:40;20.20;99.90
67163;DHT22;54092;53.088;8.850;2023-04-07T13:41:07;19.70;99.90
67163;DHT22;54092;53.088;8.850;2023-04-07T13:43:32;19.70;99.90
67163;DHT22;54092;53.088;8.850;2023-04-07T13:45:58;19.00;99.90
67163;DHT22;54092;53.088;8.850;2023-04-07T13:48:23;18.30;99.90
67163;DHT22;54092;53.088;8.850;2023-04-07T13:50:49;17.90;99.90
67163;DHT22;54092;53.088;8.850;2023-04-07T13:53:14;18.00;99.90
67163;DHT22;54092;53.088;8.850;2023-04-07T13:55:40;17.70;99.90
67163;DHT22;54092;53.088;8.850;2023-04-07T13:58:06;17.50;99.90
67163;DHT22;54092;53.088;8.850;2023-04-07T14:00:31;17.40;99.90
67163;DHT22;54092;53.088;8.850;2023-04-07T14:02:57;17.30;99.90
67163;DHT22;54092;53.088;8.850;2023-04-07T14:05:23;17.40;99.90
67163;DHT22;54092;53.088;8.850;2023-04-07T14:07:49;17.60;99.90
67163;DHT22;54092;53.088;8.850;2023-04-07T14:10:15;17.60;99.90
67163;DHT22;54092;53.088;8.850;2023-04-07T14:12:40;16.90;99.90
67163;DHT22;54092;53.088;8.850;2023-04-07T14:15:06;16.80;99.90
67163;DHT22;54092;53.088;8.850;2023-04-07T14:17:32;17.10;99.90
67163;DHT22;54092;53.088;8.850;2023-04-07T14:19:57;17.40;99.90
67163;DHT22;54092;53.088;8.850;2023-04-07T14:22:23;17.40;99.90
67163;DHT22;54092;53.088;8.850;2023-04-07T14:24:48;17.40;99.90
67163;DHT22;54092;53.088;8.850;2023-04-07T14:27:14;17.30;99.90
67163;DHT22;54092;53.088;8.850;2023-04-07T14:29:45;17.30;99.90
67163;DHT22;54092;53.088;8.850;2023-04-07T14:32:11;17.60;99.90
67163;DHT22;54092;53.088;8.850;2023-04-07T14:34:37;17.80;99.90
67163;DHT22;54092;53.088;8.850;2023-04-07T14:37:02;17.90;99.90
67163;DHT22;54092;53.088;8.850;2023-04-07T14:39:28;17.90;99.90
67163;DHT22;54092;53.088;8.850;2023-04-07T14:41:53;18.00;99.90
67163;DHT22;54092;53.088;8.850;2023-04-07T14:44:19;18.10;99.90
67163;DHT22;54092;53.088;8.850;2023-04-07T14:46:45;17.80;99.90
67163;DHT22;54092;53.088;8.850;2023-04-07T14:49:13;17.50;99.90
67163;DHT22;54092;53.088;8.850;2023-04-07T14:51:38;17.00;99.90
67163;DHT22;54092;53.088;8.850;2023-04-07T14:54:04;16.80;99.90
67163;DHT22;54092;53.088;8.850;2023-04-07T14:56:29;16.80;99.90
67163;DHT22;54092;53.088;8.850;2023-04-07T14:58:55;16.80;99.90
67163;DHT22;54092;53.088;8.850;2023-04-07T15:01:20;16.90;99.90
67163;DHT22;54092;53.088;8.850;2023-04-07T15:03:46;16.80;99.90
67163;DHT22;54092;53.088;8.850;2023-04-07T15:06:12;16.60;99.90
67163;DHT22;54092;53.088;8.850;2023-04-07T15:08:39;16.60;99.90
67163;DHT22;54092;53.088;8.850;2023-04-07T15:11:08;16.30;99.90
67163;DHT22;54092;53.088;8.850;2023-04-07T15:13:34;16.20;99.90
67163;DHT22;54092;53.088;8.850;2023-04-07T15:16:11;15.80;99.90
67163;DHT22;54092;53.088;8.850;2023-04-07T15:18:39;15.70;99.90
67163;DHT22;54092;53.088;8.850;2023-04-07T15:21:05;15.70;99.90
67163;DHT22;54092;53.088;8.850;2023-04-07T15:23:31;16.00;99.90
67163;DHT22;54092;53.088;8.850;2023-04-07T15:25:57;16.30;99.90
67163;DHT22;54092;53.088;8.850;2023-04-07T15:28:23;16.80;99.90
67163;DHT22;54092;53.088;8.850;2023-04-07T15:30:49;17.30;99.90
67163;DHT22;54092;53.088;8.850;2023-04-07T15:33:14;17.20;99.90
67163;DHT22;54092;53.088;8.850;2023-04-07T15:35:41;16.80;99.90
67163;DHT22;54092;53.088;8.850;2023-04-07T15:38:07;16.40;99.90
67163;DHT22;54092;53.088;8.850;2023-04-07T15:40:35;15.90;99.90
67163;DHT22;54092;53.088;8.850;2023-04-07T15:43:01;15.60;99.90
67163;DHT22;54092;53.088;8.850;2023-04-07T15:45:26;15.60;99.90
67163;DHT22;54092;53.088;8.850;2023-04-07T15:47:52;15.40;99.90
67163;DHT22;54092;53.088;8.850;2023-04-07T15:50:18;15.30;99.90
67163;DHT22;54092;53.088;8.850;2023-04-07T15:52:43;15.10;99.90